Time;durP1;ratioP1;P1;durP2;ratioP2;P2;SDS_P1;SDS_P2;PMS_P1;PMS_P2;Temp;Humidity;BMP_temperature;BMP_pressure;BME280_temperature;BME280_humidity;BME280_pressure;Samples;Min_cycle;Max_cycle;Signal;HPM_P1;HPM_P2
2024/03/10 00:02:23;;;;;;;1.85;1.10;;;22.80;49.70;;;;;;5077623;28;20035;-63
2024/03/10 00:04:49;;;;;;;1.52;1.10;;;22.80;49.70;;;;;;5078962;28;20063;-63
2024/03/10 00:07:14;;;;;;;2.10;1.08;;;22.80;49.70;;;;;;5083549;28;20496;-63
2024/03/10 00:09:40;;;;;;;1.50;1.10;;;22.70;49.60;;;;;;5077975;28;20111;-62
2024/03/10 00:12:06;;;;;;;1.75;1.10;;;22.70;49.60;;;;;;5080414;28;20071;-64
2024/03/10 00:14:33;;;;;;;1.52;1.00;;;22.70;49.60;;;;;;5079831;28;20476;-64
2024/03/10 00:16:59;;;;;;;1.50;1.10;;;22.70;49.60;;;;;;5080987;28;20107;-64
2024/03/10 00:19:27;;;;;;;1.70;1.08;;;22.70;49.50;;;;;;5062778;28;20127;-64
2024/03/10 00:21:54;;;;;;;2.30;1.20;;;22.70;49.50;;;;;;5079519;28;20077;-64
2024/03/10 00:24:20;;;;;;;2.53;1.10;;;22.70;49.50;;;;;;5078399;28;20054;-64
2024/03/10 00:26:45;;;;;;;1.40;1.00;;;22.70;49.50;;;;;;5080481;28;20151;-64
2024/03/10 00:29:11;;;;;;;1.45;1.05;;;22.70;49.40;;;;;;5080212;28;20024;-64
2024/03/10 00:31:37;;;;;;;1.63;1.25;;;22.60;49.30;;;;;;5080908;28;20502;-64
2024/03/10 00:34:05;;;;;;;1.48;1.02;;;22.60;49.40;;;;;;5079656;28;20035;-64
2024/03/10 00:36:30;;;;;;;1.42;1.13;;;22.60;49.30;;;;;;5080233;28;20016;-64
2024/03/10 00:38:56;;;;;;;1.70;1.10;;;22.60;49.30;;;;;;5077916;28;20389;-64
2024/03/10 00:41:22;;;;;;;1.40;1.05;;;22.60;49.30;;;;;;5081241;28;20048;-65
2024/03/10 00:43:48;;;;;;;1.90;1.25;;;22.60;49.30;;;;;;5080379;28;20024;-64
2024/03/10 00:46:14;;;;;;;1.50;1.10;;;22.60;49.30;;;;;;5082112;28;20032;-64
2024/03/10 00:48:40;;;;;;;1.33;1.00;;;22.60;49.30;;;;;;5077684;28;20444;-64
2024/03/10 00:51:06;;;;;;;1.45;0.90;;;22.50;49.20;;;;;;5080550;28;20115;-64
2024/03/10 00:53:31;;;;;;;1.75;1.20;;;22.50;49.20;;;;;;5081226;28;20032;-64
2024/03/10 00:55:57;;;;;;;1.60;1.20;;;22.50;49.20;;;;;;5078912;28;20053;-64
2024/03/10 00:58:23;;;;;;;1.63;1.08;;;22.50;49.20;;;;;;5079803;28;20036;-64
2024/03/10 01:00:48;;;;;;;1.85;1.20;;;22.50;49.30;;;;;;5078581;28;20036;-64
2024/03/10 01:03:15;;;;;;;1.60;1.00;;;22.40;49.20;;;;;;5079384;28;20048;-64
2024/03/10 01:05:41;;;;;;;1.25;1.00;;;22.40;49.20;;;;;;5080134;28;20020;-66
2024/03/10 01:08:06;;;;;;;1.75;1.20;;;22.40;49.70;;;;;;5079251;28;20024;-65
2024/03/10 01:10:32;;;;;;;2.75;1.15;;;22.40;49.20;;;;;;5077962;28;20035;-65
2024/03/10 01:12:58;;;;;;;1.65;1.10;;;22.40;49.20;;;;;;5077714;28;20086;-66
2024/03/10 01:15:24;;;;;;;1.55;1.10;;;22.40;49.20;;;;;;5079091;28;20109;-66
2024/03/10 01:17:49;;;;;;;1.83;1.13;;;22.40;49.30;;;;;;5081203;28;20097;-66
2024/03/10 01:20:16;;;;;;;1.83;1.20;;;22.30;49.20;;;;;;5078282;28;20424;-66
2024/03/10 01:22:42;;;;;;;1.58;1.00;;;22.30;49.20;;;;;;5080724;28;20161;-66
2024/03/10 01:25:08;;;;;;;1.42;0.98;;;22.30;49.20;;;;;;5080401;28;20067;-63
2024/03/10 01:27:35;;;;;;;1.83;1.10;;;22.30;49.20;;;;;;5080414;28;20028;-63
2024/03/10 01:30:00;;;;;;;1.50;1.00;;;22.30;49.30;;;;;;5078631;28;20433;-62
2024/03/10 01:32:26;;;;;;;1.60;1.00;;;22.30;49.30;;;;;;5079327;28;20111;-62
2024/03/10 01:34:53;;;;;;;1.48;1.05;;;22.30;49.20;;;;;;5078959;28;20028;-64
2024/03/10 01:37:18;;;;;;;1.60;1.10;;;22.30;49.30;;;;;;5079424;28;20093;-64
2024/03/10 01:39:44;;;;;;;1.10;0.98;;;22.20;49.20;;;;;;5078425;28;20118;-64
2024/03/10 01:42:11;;;;;;;1.60;1.10;;;22.20;49.20;;;;;;5078651;28;20033;-64
2024/03/10 01:44:36;;;;;;;2.38;1.40;;;22.20;49.30;;;;;;5069823;28;20541;-64
2024/03/10 01:47:02;;;;;;;1.70;1.08;;;22.20;49.30;;;;;;5078603;28;20043;-64
2024/03/10 01:49:28;;;;;;;1.38;1.05;;;22.20;49.30;;;;;;5079052;28;20024;-64
2024/03/10 01:51:56;;;;;;;1.42;1.00;;;22.20;49.30;;;;;;5078759;28;20031;-64
2024/03/10 01:54:28;;;;;;;1.50;1.10;;;22.20;49.30;;;;;;5077112;28;20491;-64
2024/03/10 01:56:54;;;;;;;2.35;1.30;;;22.10;49.20;;;;;;5078492;28;20979;-65
2024/03/10 01:59:21;;;;;;;2.25;1.27;;;22.10;49.30;;;;;;5079941;28;20016;-64
2024/03/10 02:01:48;;;;;;;1.58;1.05;;;22.10;49.30;;;;;;5078139;28;20028;-64
2024/03/10 02:04:14;;;;;;;2.35;1.10;;;22.00;49.20;;;;;;5078450;28;20032;-64
2024/03/10 02:06:43;;;;;;;1.33;0.90;;;22.10;49.30;;;;;;5079370;28;20040;-64
2024/03/10 02:09:16;;;;;;;1.63;1.10;;;22.10;49.30;;;;;;5076695;28;20442;-64
2024/03/10 02:11:42;;;;;;;2.22;1.10;;;22.10;49.30;;;;;;5079047;28;20028;-64
2024/03/10 02:14:09;;;;;;;1.70;1.00;;;22.00;49.20;;;;;;5079322;28;20028;-64
2024/03/10 02:16:34;;;;;;;1.40;0.98;;;22.00;49.20;;;;;;5076123;28;20135;-64
2024/03/10 02:19:00;;;;;;;1.35;1.00;;;22.00;49.20;;;;;;5078911;28;20036;-64
2024/03/10 02:21:27;;;;;;;1.83;1.13;;;22.00;49.20;;;;;;5080223;28;20017;-64
2024/03/10 02:24:11;;;;;;;1.60;1.20;;;22.00;49.20;;;;;;5078198;28;20027;-64
2024/03/10 02:26:42;;;;;;;1.55;1.10;;;22.00;49.30;;;;;;5077480;28;20027;-64
2024/03/10 02:29:21;;;;;;;1.58;1.17;;;22.00;49.20;;;;;;5078418;28;20102;-64
2024/03/10 02:48:17;;;;;;;1.45;1.00;;;21.90;49.20;;;;;;5082193;28;20116;-63
2024/03/10 02:50:44;;;;;;;1.50;1.10;;;21.90;49.20;;;;;;5083562;28;20107;-63
2024/03/10 02:53:10;;;;;;;1.63;1.00;;;21.80;49.20;;;;;;5082245;28;20466;-63
2024/03/10 02:55:36;;;;;;;1.50;1.10;;;21.80;49.20;;;;;;5079115;28;20457;-63
2024/03/10 02:58:04;;;;;;;1.58;1.13;;;21.80;49.20;;;;;;5081474;28;20459;-63
2024/03/10 03:00:33;;;;;;;1.60;1.00;;;21.80;49.20;;;;;;5082849;28;20499;-63
2024/03/10 03:03:01;;;;;;;;;;;21.80;49.30;;;;;;5084495;28;20115;-63
2024/03/10 03:05:26;;;;;;;1.92;1.20;;;21.80;49.20;;;;;;5081227;28;20368;-64
2024/03/10 03:07:55;;;;;;;1.65;1.13;;;21.80;49.30;;;;;;5082991;28;20122;-63
2024/03/10 03:10:22;;;;;;;1.10;0.90;;;21.80;49.30;;;;;;5078857;28;20056;-64
2024/03/10 03:12:47;;;;;;;1.92;1.20;;;21.80;49.80;;;;;;5079583;28;20036;-63
2024/03/10 03:15:15;;;;;;;1.55;1.10;;;21.70;49.20;;;;;;5082785;28;20038;-63
2024/03/10 03:17:44;;;;;;;1.25;0.93;;;21.70;49.20;;;;;;5081189;28;20044;-63
2024/03/10 03:20:15;;;;;;;1.17;1.00;;;21.70;49.20;;;;;;5083277;28;20024;-63
2024/03/10 03:22:44;;;;;;;1.70;1.00;;;21.70;49.30;;;;;;5081314;28;20051;-63
2024/03/10 03:25:14;;;;;;;1.83;1.15;;;21.70;49.20;;;;;;5081500;28;20020;-63
2024/03/10 03:27:50;;;;;;;;;;;21.70;49.20;;;;;;5081292;28;20029;-63
2024/03/10 03:30:16;;;;;;;1.35;1.00;;;21.70;49.20;;;;;;5082498;28;20372;-63
2024/03/10 03:32:42;;;;;;;1.52;1.10;;;21.70;49.30;;;;;;5083013;28;20035;-61
2024/03/10 03:35:10;;;;;;;1.58;1.10;;;21.70;49.30;;;;;;5081158;28;20028;-62
2024/03/10 03:37:36;;;;;;;1.23;1.00;;;21.70;49.30;;;;;;5081628;28;20028;-61
2024/03/10 03:40:06;;;;;;;1.33;0.90;;;21.70;49.30;;;;;;5080037;28;20024;-63
2024/03/10 03:42:32;;;;;;;1.20;1.00;;;21.60;49.60;;;;;;5071533;28;20119;-63
2024/03/10 03:44:58;;;;;;;1.30;1.08;;;21.60;49.30;;;;;;5081135;28;20163;-63
2024/03/10 03:47:26;;;;;;;1.48;0.90;;;21.60;49.30;;;;;;5063755;28;20536;-63
2024/03/10 03:49:54;;;;;;;1.52;1.10;;;21.60;49.30;;;;;;5081022;28;20102;-63
2024/03/10 03:52:19;;;;;;;1.92;1.10;;;21.60;49.30;;;;;;5078224;28;20035;-63
2024/03/10 03:54:45;;;;;;;1.50;1.08;;;21.60;49.30;;;;;;5081442;28;20039;-63
2024/03/10 03:57:11;;;;;;;1.67;1.00;;;21.60;49.30;;;;;;5060397;28;20029;-64
2024/03/10 03:59:40;;;;;;;1.33;0.90;;;21.60;49.30;;;;;;5080096;28;20187;-64
2024/03/10 04:02:07;;;;;;;1.40;1.05;;;21.60;49.30;;;;;;5081641;28;20126;-64
2024/03/10 04:04:32;;;;;;;1.40;1.00;;;21.50;49.30;;;;;;5081151;28;20384;-64
2024/03/10 04:06:58;;;;;;;1.40;1.00;;;21.60;49.40;;;;;;5081459;28;20036;-64
2024/03/10 04:09:24;;;;;;;1.98;1.05;;;21.50;49.30;;;;;;5063649;28;20071;-64
2024/03/10 04:11:49;;;;;;;1.77;1.10;;;21.50;49.30;;;;;;5078369;28;20480;-64
2024/03/10 04:14:15;;;;;;;1.48;1.00;;;21.50;49.30;;;;;;5061461;28;20033;-65
2024/03/10 04:16:44;;;;;;;1.70;1.20;;;21.50;49.30;;;;;;5080059;28;20024;-64
2024/03/10 04:19:11;;;;;;;1.27;0.95;;;21.50;49.30;;;;;;5080020;28;20464;-64
2024/03/10 04:21:37;;;;;;;1.83;1.00;;;21.50;49.30;;;;;;5080944;28;20036;-64
2024/03/10 04:24:07;;;;;;;1.30;1.00;;;21.50;49.40;;;;;;5082037;28;20511;-64
2024/03/10 04:26:33;;;;;;;1.50;1.00;;;21.50;49.40;;;;;;5080079;28;20402;-64
2024/03/10 04:28:59;;;;;;;1.00;0.90;;;21.50;49.40;;;;;;5081994;28;20082;-64
2024/03/10 04:31:25;;;;;;;1.55;1.10;;;21.50;49.40;;;;;;5080001;28;20472;-64
2024/03/10 04:33:51;;;;;;;1.35;1.00;;;21.50;49.40;;;;;;5079041;28;20028;-64
2024/03/10 04:36:17;;;;;;;1.75;1.00;;;21.40;49.40;;;;;;5081502;28;20020;-63
2024/03/10 04:38:43;;;;;;;1.25;0.90;;;21.50;49.50;;;;;;5078772;28;20031;-63
2024/03/10 04:41:09;;;;;;;1.27;0.90;;;21.50;49.40;;;;;;5080370;28;20477;-63
2024/03/10 04:43:35;;;;;;;1.23;0.88;;;21.40;49.40;;;;;;5079564;28;20026;-63
2024/03/10 04:46:03;;;;;;;1.15;1.00;;;21.40;49.40;;;;;;5081162;28;20035;-62
2024/03/10 04:48:30;;;;;;;1.25;0.90;;;21.40;49.40;;;;;;5079745;28;20481;-62
2024/03/10 04:50:56;;;;;;;1.33;1.00;;;21.40;49.40;;;;;;5080277;28;20024;-63
2024/03/10 04:53:21;;;;;;;1.20;0.95;;;21.40;49.40;;;;;;5079135;28;20387;-63
2024/03/10 04:55:47;;;;;;;1.20;0.90;;;21.40;49.40;;;;;;5078270;28;20027;-64
2024/03/10 04:58:15;;;;;;;1.38;0.90;;;21.40;49.40;;;;;;5080648;28;20028;-64
2024/03/10 05:00:41;;;;;;;1.40;1.00;;;21.40;49.40;;;;;;5079026;28;20544;-64
2024/03/10 05:03:10;;;;;;;1.13;0.80;;;21.40;50.00;;;;;;5080107;28;20032;-64
2024/03/10 05:05:35;;;;;;;1.33;0.90;;;21.40;49.40;;;;;;5079623;28;20028;-65
2024/03/10 05:08:01;;;;;;;1.10;1.00;;;21.40;49.40;;;;;;5077926;28;20440;-66
2024/03/10 05:10:27;;;;;;;1.25;0.80;;;21.40;49.40;;;;;;5079455;28;20375;-66
2024/03/10 05:12:52;;;;;;;0.98;0.80;;;21.30;49.40;;;;;;5060014;28;20267;-66
2024/03/10 05:15:18;;;;;;;1.30;0.90;;;21.40;49.50;;;;;;5079684;28;20032;-66
2024/03/10 05:17:44;;;;;;;1.50;0.90;;;21.30;49.40;;;;;;5095444;28;20024;-65
2024/03/10 05:20:11;;;;;;;1.13;0.90;;;21.30;49.40;;;;;;5081695;28;20086;-66
2024/03/10 05:22:36;;;;;;;1.15;0.90;;;21.30;49.40;;;;;;5080844;28;20017;-66
2024/03/10 05:25:02;;;;;;;1.20;0.90;;;21.30;49.50;;;;;;5080041;28;20035;-66
2024/03/10 05:27:29;;;;;;;1.10;0.80;;;21.30;49.40;;;;;;5076231;28;20107;-65
2024/03/10 05:29:54;;;;;;;1.17;0.93;;;21.30;49.40;;;;;;5060424;28;20028;-66
2024/03/10 05:32:20;;;;;;;1.58;0.90;;;21.30;49.40;;;;;;5062271;28;20162;-66
2024/03/10 05:34:46;;;;;;;0.90;0.77;;;21.30;49.40;;;;;;5092314;28;20044;-66
2024/03/10 05:37:13;;;;;;;0.93;0.73;;;21.30;49.50;;;;;;5079336;28;20020;-66
2024/03/10 05:39:39;;;;;;;1.35;0.90;;;21.30;49.50;;;;;;5081773;28;20016;-65
2024/03/10 05:42:07;;;;;;;1.30;0.90;;;21.30;49.40;;;;;;5075923;28;20028;-66
2024/03/10 05:44:35;;;;;;;1.38;0.98;;;21.30;49.50;;;;;;5060887;28;20039;-65
2024/03/10 05:47:01;;;;;;;0.80;0.73;;;21.30;49.50;;;;;;5080221;28;20024;-65
2024/03/10 05:49:28;;;;;;;0.80;0.70;;;21.30;49.50;;;;;;5076820;28;20137;-65
2024/03/10 05:51:54;;;;;;;0.80;0.75;;;21.20;49.50;;;;;;5078461;28;20033;-65
2024/03/10 05:54:21;;;;;;;0.80;0.75;;;21.20;49.50;;;;;;5079456;28;20130;-65
2024/03/10 05:56:47;;;;;;;0.82;0.70;;;21.20;49.50;;;;;;5058760;28;20020;-65
2024/03/10 05:59:13;;;;;;;1.27;0.80;;;21.30;49.60;;;;;;5078065;28;20024;-65
2024/03/10 06:01:42;;;;;;;1.10;0.80;;;21.20;49.50;;;;;;5079665;28;20410;-66
2024/03/10 06:04:07;;;;;;;1.25;0.82;;;21.20;49.50;;;;;;5078577;28;20057;-65
2024/03/10 06:06:33;;;;;;;1.17;0.90;;;21.20;49.50;;;;;;5079101;28;20140;-62
2024/03/10 06:09:05;;;;;;;1.13;0.82;;;21.20;49.50;;;;;;5077150;28;20037;-62
2024/03/10 06:11:31;;;;;;;1.20;0.80;;;21.20;49.60;;;;;;5078062;28;20047;-62
2024/03/10 06:13:57;;;;;;;1.05;0.80;;;21.20;49.60;;;;;;5076299;28;20078;-62
2024/03/10 06:16:23;;;;;;;1.00;0.70;;;21.20;49.60;;;;;;5078897;28;20067;-63
2024/03/10 06:26:50;;;;;;;1.98;0.80;;;21.20;49.60;;;;;;5075121;28;20034;-63
2024/03/10 06:29:18;;;;;;;1.08;0.85;;;21.20;49.70;;;;;;5077916;28;20560;-63
2024/03/10 06:31:44;;;;;;;1.08;0.82;;;21.20;49.70;;;;;;5076011;28;20469;-62
2024/03/10 06:34:12;;;;;;;1.20;0.80;;;21.20;49.70;;;;;;5078413;28;20086;-63
2024/03/10 06:36:38;;;;;;;1.20;0.85;;;21.20;49.70;;;;;;5079970;28;20475;-62
2024/03/10 06:39:05;;;;;;;1.27;0.80;;;21.10;49.60;;;;;;5075976;28;20051;-63
2024/03/10 06:41:32;;;;;;;1.65;0.88;;;21.10;49.60;;;;;;5076456;28;20097;-62
2024/03/10 06:43:58;;;;;;;1.00;0.80;;;21.10;49.70;;;;;;5078631;28;20472;-63
2024/03/10 06:46:24;;;;;;;1.30;0.90;;;21.10;49.70;;;;;;5079203;28;20099;-63
2024/03/10 06:48:50;;;;;;;1.08;0.80;;;21.10;49.70;;;;;;5078233;28;20116;-62
2024/03/10 06:51:15;;;;;;;1.02;0.80;;;21.10;49.70;;;;;;5078804;28;20024;-63
2024/03/10 06:53:42;;;;;;;1.48;0.80;;;21.10;49.70;;;;;;5077789;28;20032;-63
2024/03/10 06:56:09;;;;;;;1.50;1.00;;;21.10;49.70;;;;;;5078513;28;20031;-62
2024/03/10 06:58:35;;;;;;;1.33;0.80;;;21.10;49.70;;;;;;5077217;28;20465;-62
2024/03/10 07:01:03;;;;;;;1.58;0.85;;;21.10;49.70;;;;;;5076471;28;20103;-63
2024/03/10 07:03:29;;;;;;;1.17;0.80;;;21.10;49.70;;;;;;5094245;28;20421;-63
2024/03/10 07:05:56;;;;;;;1.10;0.80;;;21.00;49.70;;;;;;5077606;28;20111;-63
2024/03/10 07:08:22;;;;;;;1.30;0.90;;;21.10;49.70;;;;;;5079258;28;20102;-62
2024/03/10 07:10:48;;;;;;;1.20;0.85;;;21.10;49.70;;;;;;5078430;28;20032;-63
2024/03/10 07:13:13;;;;;;;0.98;0.80;;;21.10;49.80;;;;;;5077292;28;20024;-63
2024/03/10 07:15:39;;;;;;;1.42;0.98;;;21.10;49.80;;;;;;5076146;28;20051;-62
2024/03/10 07:18:05;;;;;;;1.13;0.88;;;21.10;49.80;;;;;;5079464;28;20047;-63
2024/03/10 07:20:31;;;;;;;1.10;0.70;;;21.00;49.80;;;;;;5079851;28;20044;-63
2024/03/10 07:22:56;;;;;;;1.67;1.05;;;21.10;49.80;;;;;;5078913;28;20370;-63
2024/03/10 07:25:25;;;;;;;1.23;0.88;;;21.10;49.80;;;;;;5077803;28;20030;-63
2024/03/10 07:27:51;;;;;;;0.77;0.70;;;21.00;49.80;;;;;;5078813;28;20056;-65
2024/03/10 07:30:18;;;;;;;1.38;0.80;;;21.00;49.80;;;;;;5080285;28;20484;-65
2024/03/10 07:32:45;;;;;;;1.50;0.85;;;21.00;49.80;;;;;;5081136;28;20122;-65
2024/03/10 07:35:12;;;;;;;0.90;0.70;;;21.00;49.80;;;;;;5081109;28;20033;-65
2024/03/10 07:37:38;;;;;;;1.08;0.80;;;21.00;49.80;;;;;;5082810;28;20024;-65
2024/03/10 07:40:15;;;;;;;1.55;0.85;;;21.00;49.80;;;;;;5079480;28;20435;-65
2024/03/10 07:42:42;;;;;;;1.88;0.90;;;21.00;49.80;;;;;;5080797;28;20070;-65
2024/03/10 07:45:08;;;;;;;1.00;0.80;;;21.00;49.80;;;;;;5082479;28;20457;-65
2024/03/10 07:47:36;;;;;;;1.20;0.80;;;21.00;49.80;;;;;;5083751;28;20016;-65
2024/03/10 07:50:02;;;;;;;1.52;0.80;;;21.00;49.80;;;;;;5081876;28;20024;-66
2024/03/10 07:52:28;;;;;;;1.27;0.82;;;21.00;49.80;;;;;;5081980;28;20369;-65
2024/03/10 07:54:53;;;;;;;0.85;0.70;;;21.00;49.80;;;;;;5081697;28;20099;-65
2024/03/10 07:57:19;;;;;;;0.98;0.85;;;20.90;49.90;;;;;;5080669;28;20474;-66
2024/03/10 07:59:44;;;;;;;0.80;0.70;;;21.00;49.80;;;;;;5076833;28;20039;-65
2024/03/10 08:02:10;;;;;;;1.10;0.75;;;21.00;49.80;;;;;;5076746;28;20538;-65
2024/03/10 08:04:36;;;;;;;0.85;0.70;;;21.00;49.80;;;;;;5079236;28;20024;-65
2024/03/10 08:07:02;;;;;;;0.80;0.77;;;21.00;49.80;;;;;;5079800;28;20024;-65
2024/03/10 08:09:28;;;;;;;1.02;0.80;;;21.00;49.80;;;;;;5079374;28;20480;-65
2024/03/10 08:11:54;;;;;;;1.15;0.80;;;21.00;49.90;;;;;;5062065;28;20510;-66
2024/03/10 08:14:20;;;;;;;1.00;0.77;;;20.90;49.80;;;;;;5078789;28;20123;-66
2024/03/10 08:16:48;;;;;;;1.20;0.80;;;21.00;49.90;;;;;;5079049;28;20546;-65
2024/03/10 08:19:13;;;;;;;0.80;0.70;;;21.00;49.90;;;;;;5081750;28;20404;-65
2024/03/10 08:21:39;;;;;;;1.02;0.80;;;21.00;49.90;;;;;;5080962;28;20028;-65
2024/03/10 08:24:09;;;;;;;0.90;0.73;;;20.90;49.80;;;;;;5079241;28;20450;-66
2024/03/10 08:26:35;;;;;;;1.35;0.90;;;20.90;49.90;;;;;;5082420;28;20074;-61
2024/03/10 08:29:02;;;;;;;1.10;0.82;;;20.90;49.80;;;;;;5077051;28;20352;-62
2024/03/10 08:31:27;;;;;;;1.02;0.80;;;20.90;49.90;;;;;;5077907;28;20024;-63
2024/03/10 08:33:53;;;;;;;1.17;0.70;;;20.90;49.90;;;;;;5078363;28;20460;-63
2024/03/10 08:36:19;;;;;;;1.10;0.70;;;20.90;50.40;;;;;;5078405;28;20182;-62
2024/03/10 08:38:45;;;;;;;0.88;0.70;;;20.90;49.90;;;;;;5078856;28;20613;-62
2024/03/10 08:41:11;;;;;;;0.90;0.70;;;20.90;49.90;;;;;;5080546;28;20563;-62
2024/03/10 08:43:36;;;;;;;0.90;0.70;;;20.90;49.90;;;;;;5078300;28;20031;-62
2024/03/10 08:46:02;;;;;;;1.00;0.80;;;20.90;49.90;;;;;;5081361;28;20028;-62
2024/03/10 08:48:28;;;;;;;1.05;0.80;;;20.90;49.90;;;;;;5082109;28;20021;-62
2024/03/10 08:50:54;;;;;;;1.35;0.90;;;20.90;50.00;;;;;;5080651;28;20773;-62
2024/03/10 08:53:20;;;;;;;0.93;0.60;;;20.90;50.00;;;;;;5078411;28;20043;-62
2024/03/10 08:55:45;;;;;;;0.93;0.70;;;20.90;49.90;;;;;;5080112;28;20416;-63
2024/03/10 08:58:12;;;;;;;1.00;0.70;;;20.90;50.00;;;;;;5078869;28;20033;-62
2024/03/10 09:00:38;;;;;;;0.85;0.70;;;20.90;50.00;;;;;;5078781;28;20477;-63
2024/03/10 09:03:04;;;;;;;0.98;0.70;;;20.90;50.00;;;;;;5079842;28;20138;-62
2024/03/10 09:05:30;;;;;;;0.90;0.80;;;20.90;50.00;;;;;;5080533;28;20165;-63
2024/03/10 09:07:57;;;;;;;1.30;0.90;;;20.90;50.00;;;;;;5081288;28;20020;-62
2024/03/10 09:10:25;;;;;;;0.88;0.80;;;20.90;50.00;;;;;;5082005;28;20480;-62
2024/03/10 09:12:52;;;;;;;0.95;0.70;;;20.90;50.00;;;;;;5076829;28;20591;-62
2024/03/10 09:15:18;;;;;;;1.05;0.80;;;20.90;50.10;;;;;;5078763;28;20035;-62
2024/03/10 09:17:45;;;;;;;1.25;0.90;;;20.90;50.10;;;;;;5063635;28;20032;-63
2024/03/10 09:20:12;;;;;;;2.25;0.90;;;20.90;50.10;;;;;;5062381;28;20025;-62
2024/03/10 09:22:43;;;;;;;1.65;0.93;;;20.90;50.10;;;;;;5074098;28;20031;-63
2024/03/10 09:25:21;;;;;;;0.77;0.70;;;20.90;50.60;;;;;;5077139;28;20621;-63
2024/03/10 09:27:51;;;;;;;0.70;0.70;;;20.90;50.10;;;;;;5077653;28;20096;-63
2024/03/10 09:30:21;;;;;;;1.58;0.98;;;20.90;50.10;;;;;;5080349;28;20525;-63
2024/03/10 09:32:50;;;;;;;1.65;0.90;;;20.90;50.20;;;;;;5079803;28;20038;-63
2024/03/10 09:35:27;;;;;;;1.73;0.88;;;20.90;50.20;;;;;;5078852;28;20020;-63
2024/03/10 09:37:54;;;;;;;1.58;0.85;;;20.90;50.20;;;;;;5079044;28;20035;-62
2024/03/10 09:40:26;;;;;;;1.33;0.93;;;20.90;50.20;;;;;;5077551;28;20891;-63
2024/03/10 09:42:51;;;;;;;2.00;1.10;;;20.90;50.30;;;;;;5076241;28;20067;-63
2024/03/10 09:45:20;;;;;;;1.98;1.00;;;20.90;50.30;;;;;;5080006;28;20033;-63
2024/03/10 09:47:48;;;;;;;1.50;1.02;;;20.90;50.30;;;;;;5078765;28;20029;-64
2024/03/10 09:50:22;;;;;;;1.23;0.93;;;20.90;50.30;;;;;;5080252;28;20098;-64
2024/03/10 09:52:53;;;;;;;1.80;1.00;;;20.90;50.40;;;;;;5078015;28;20031;-64
2024/03/10 09:55:20;;;;;;;1.98;1.10;;;20.90;50.40;;;;;;5075042;28;20024;-64
2024/03/10 09:57:53;;;;;;;1.73;1.00;;;20.90;50.50;;;;;;5078915;28;20020;-64
2024/03/10 10:00:25;;;;;;;2.13;1.10;;;20.90;50.50;;;;;;5078572;28;20020;-64
2024/03/10 10:03:12;;;;;;;2.75;1.30;;;20.90;50.60;;;;;;5080385;28;20095;-64
2024/03/10 10:05:42;;;;;;;2.63;1.08;;;20.90;51.20;;;;;;5079236;28;20024;-64
2024/03/10 10:08:12;;;;;;;2.33;1.30;;;20.90;50.70;;;;;;5077924;28;20445;-64
2024/03/10 10:10:44;;;;;;;;;;;20.90;50.80;;;;;;5080202;28;20021;-64
2024/03/10 10:13:23;;;;;;;2.20;1.10;;;20.90;50.80;;;;;;5093698;28;20011;-64
2024/03/10 10:15:52;;;;;;;1.92;1.25;;;20.90;50.90;;;;;;5077882;28;20796;-64
2024/03/10 10:18:18;;;;;;;2.55;1.27;;;20.90;50.90;;;;;;5078250;28;20017;-64
2024/03/10 10:20:53;;;;;;;2.88;1.50;;;20.90;51.00;;;;;;5082039;28;20055;-64
2024/03/10 10:23:23;;;;;;;3.28;1.30;;;20.90;50.90;;;;;;5078292;28;20154;-64
2024/03/10 10:26:09;;;;;;;1.88;1.15;;;20.90;51.10;;;;;;5078337;28;20036;-64
2024/03/10 10:28:37;;;;;;;2.55;1.10;;;20.90;51.00;;;;;;5076757;28;20047;-63
2024/03/10 10:31:13;;;;;;;2.40;1.30;;;20.90;51.00;;;;;;5079804;28;20108;-63
2024/03/10 10:33:41;;;;;;;1.95;1.40;;;20.90;51.10;;;;;;5058682;28;20027;-62
2024/03/10 10:36:07;;;;;;;2.15;1.27;;;20.90;51.10;;;;;;5077304;28;20070;-64
2024/03/10 10:38:37;;;;;;;2.10;1.15;;;20.90;51.00;;;;;;5078167;28;20089;-64
2024/03/10 10:41:05;;;;;;;2.30;1.20;;;20.90;51.10;;;;;;5078473;28;20115;-63
2024/03/10 10:43:33;;;;;;;2.00;1.17;;;20.90;51.10;;;;;;5075485;28;20020;-63
2024/03/10 10:45:59;;;;;;;2.13;1.10;;;20.90;51.10;;;;;;5076726;28;20477;-62
2024/03/10 10:48:26;;;;;;;1.98;1.20;;;20.90;51.10;;;;;;5078376;28;20623;-62
2024/03/10 10:50:52;;;;;;;2.15;1.17;;;20.90;51.10;;;;;;5077924;28;20040;-62
2024/03/10 10:53:18;;;;;;;1.83;1.10;;;20.90;51.10;;;;;;5079298;28;20032;-63
2024/03/10 10:55:45;;;;;;;2.00;1.10;;;20.90;51.10;;;;;;5078051;28;20587;-63
2024/03/10 10:58:11;;;;;;;2.40;1.20;;;20.90;51.10;;;;;;5079276;28;20085;-63
2024/03/10 11:00:40;;;;;;;2.13;1.10;;;20.90;51.10;;;;;;5079327;28;20024;-63
2024/03/10 11:03:24;;;;;;;1.87;1.00;;;20.90;51.10;;;;;;5084224;28;20361;-63
2024/03/10 11:06:02;;;;;;;2.33;1.00;;;20.90;51.10;;;;;;5081568;28;20465;-63
2024/03/10 11:08:35;;;;;;;1.88;1.20;;;20.90;51.10;;;;;;5080829;28;20036;-63
2024/03/10 11:11:02;;;;;;;1.70;1.10;;;20.90;51.10;;;;;;5080310;28;20040;-63
2024/03/10 11:13:28;;;;;;;1.88;1.20;;;20.90;51.20;;;;;;5082980;28;20028;-63
2024/03/10 11:16:04;;;;;;;2.72;1.23;;;20.90;51.20;;;;;;5081071;28;20051;-63
2024/03/10 11:18:31;;;;;;;2.88;1.50;;;21.00;51.40;;;;;;5080594;28;20658;-63
2024/03/10 11:20:58;;;;;;;4.10;1.80;;;20.90;51.40;;;;;;5081839;28;20108;-63
2024/03/10 11:23:26;;;;;;;3.42;1.30;;;20.90;51.30;;;;;;5079366;28;20048;-63
2024/03/10 11:25:51;;;;;;;4.85;1.40;;;20.90;51.40;;;;;;5065054;28;20133;-63
2024/03/10 11:28:25;;;;;;;3.78;1.60;;;21.00;51.90;;;;;;5080041;28;20594;-63
2024/03/10 11:30:58;;;;;;;3.13;1.50;;;21.00;51.60;;;;;;5078279;28;20110;-63
2024/03/10 11:33:24;;;;;;;4.65;1.58;;;21.00;51.60;;;;;;5081882;28;20047;-63
2024/03/10 11:35:51;;;;;;;3.28;1.50;;;21.00;52.30;;;;;;5080192;28;20417;-64
2024/03/10 11:38:18;;;;;;;4.07;1.60;;;21.00;51.90;;;;;;5082857;28;20024;-65
2024/03/10 11:40:44;;;;;;;5.00;1.70;;;21.00;52.00;;;;;;5079921;28;20436;-65
2024/03/10 11:43:13;;;;;;;5.13;1.80;;;21.00;52.10;;;;;;5063398;28;20116;-64
2024/03/10 11:45:40;;;;;;;4.03;1.60;;;21.00;52.10;;;;;;5062334;28;20039;-64
2024/03/10 11:48:07;;;;;;;4.70;1.60;;;20.90;52.20;;;;;;5080412;28;20068;-65
2024/03/10 11:50:33;;;;;;;5.25;1.60;;;21.00;52.20;;;;;;5078877;28;20032;-65
2024/03/10 11:52:58;;;;;;;5.05;1.60;;;21.00;52.30;;;;;;5080403;28;20040;-65
2024/03/10 11:55:24;;;;;;;3.85;1.55;;;21.00;52.30;;;;;;5078740;28;20020;-62
2024/03/10 11:57:53;;;;;;;3.13;1.30;;;21.00;52.40;;;;;;5081148;28;20073;-62
2024/03/10 12:00:21;;;;;;;3.25;1.30;;;21.00;52.40;;;;;;5080275;28;21021;-63
2024/03/10 12:02:51;;;;;;;3.35;1.40;;;21.00;52.40;;;;;;5080635;28;20063;-63
2024/03/10 12:05:17;;;;;;;3.70;1.38;;;21.00;52.40;;;;;;5080866;28;20052;-62
2024/03/10 12:07:46;;;;;;;3.50;1.40;;;21.00;52.40;;;;;;5080916;28;20062;-62
2024/03/10 12:10:19;;;;;;;3.83;1.42;;;21.00;52.40;;;;;;5081399;28;20107;-63
2024/03/10 12:12:48;;;;;;;4.70;1.33;;;21.00;52.40;;;;;;5081311;28;20098;-64
2024/03/10 12:15:24;;;;;;;4.03;1.45;;;21.00;52.40;;;;;;5060666;28;20052;-63
2024/03/10 12:17:50;;;;;;;3.92;1.42;;;21.00;52.40;;;;;;5077578;28;20037;-63
2024/03/10 12:20:18;;;;;;;3.40;1.35;;;21.00;52.30;;;;;;5079857;28;20111;-63
2024/03/10 12:22:44;;;;;;;3.63;1.50;;;21.00;52.30;;;;;;5080852;28;20358;-62
2024/03/10 12:25:11;;;;;;;3.08;1.23;;;21.00;52.20;;;;;;5080170;28;20083;-63
2024/03/10 12:27:40;;;;;;;2.65;1.20;;;21.00;52.20;;;;;;5079919;28;20035;-62
2024/03/10 12:30:09;;;;;;;;;;;21.00;52.20;;;;;;5078195;28;20036;-63
2024/03/10 12:32:40;;;;;;;2.47;1.20;;;21.00;52.20;;;;;;5079987;28;20383;-64
2024/03/10 12:35:08;;;;;;;2.80;1.40;;;21.00;52.70;;;;;;5080602;28;20093;-63
2024/03/10 12:37:35;;;;;;;3.33;1.30;;;21.00;52.20;;;;;;5077456;28;20020;-63
2024/03/10 12:40:04;;;;;;;3.05;1.48;;;21.00;52.20;;;;;;5078645;28;20516;-63
2024/03/10 12:42:30;;;;;;;3.08;1.30;;;21.00;52.10;;;;;;5080494;28;20020;-63
2024/03/10 12:44:55;;;;;;;3.38;1.55;;;21.00;52.10;;;;;;5077765;28;20039;-62
2024/03/10 12:47:21;;;;;;;2.40;1.20;;;21.00;52.10;;;;;;5080916;28;20027;-66
2024/03/10 12:49:47;;;;;;;2.65;1.35;;;21.00;52.10;;;;;;5079584;28;20060;-66
2024/03/10 12:52:13;;;;;;;3.08;1.20;;;21.00;52.10;;;;;;5093872;28;20051;-66
2024/03/10 12:54:39;;;;;;;3.42;1.38;;;21.00;52.00;;;;;;5078759;28;20579;-66
2024/03/10 12:57:05;;;;;;;3.00;1.30;;;21.00;52.00;;;;;;5080923;28;20112;-66
2024/03/10 12:59:32;;;;;;;3.88;1.52;;;21.00;51.90;;;;;;5078406;28;20021;-66
2024/03/10 13:01:57;;;;;;;3.65;1.30;;;21.00;52.00;;;;;;5079597;28;20338;-66
2024/03/10 13:04:23;;;;;;;2.95;1.20;;;21.00;52.00;;;;;;5080052;28;20024;-66
2024/03/10 13:06:48;;;;;;;3.08;1.50;;;21.00;52.00;;;;;;5070003;28;20028;-65
2024/03/10 13:09:16;;;;;;;3.00;1.30;;;21.00;52.10;;;;;;5078217;28;20025;-65
2024/03/10 13:11:42;;;;;;;2.53;1.13;;;21.00;52.10;;;;;;5079036;28;20069;-65
2024/03/10 13:14:07;;;;;;;2.22;1.10;;;21.00;52.10;;;;;;5078403;28;20488;-65